Time;durP1;ratioP1;P1;durP2;ratioP2;P2;SDS_P1;SDS_P2;PMS_P1;PMS_P2;Temp;Humidity;BMP_temperature;BMP_pressure;BME280_temperature;BME280_humidity;BME280_pressure;Samples;Min_cycle;Max_cycle;Signal;HPM_P1;HPM_P2
2022/04/29 00:00:53;;;;;;;2.83;2.63;;;11.00;82.40;;;;;;4916492;29;20237;-86
2022/04/29 00:03:22;;;;;;;4.32;3.25;;;10.90;82.20;;;;;;4916628;29;20285;-86
2022/04/29 00:05:54;;;;;;;4.95;3.08;;;10.90;83.00;;;;;;4916314;29;20206;-86
2022/04/29 00:08:23;;;;;;;4.07;2.88;;;10.80;85.00;;;;;;4916510;29;20226;-85
2022/04/29 00:10:51;;;;;;;3.28;2.97;;;10.80;84.60;;;;;;4916576;29;20309;-86
2022/04/29 00:13:20;;;;;;;3.45;2.97;;;10.80;84.80;;;;;;4916235;29;20238;-86
2022/04/29 00:15:49;;;;;;;2.85;2.65;;;10.70;85.40;;;;;;4917052;29;20321;-85
2022/04/29 00:18:17;;;;;;;3.22;2.92;;;10.70;88.60;;;;;;4916677;29;20245;-86
2022/04/29 00:20:49;;;;;;;3.47;3.05;;;10.60;90.30;;;;;;4916267;29;20237;-86
2022/04/29 00:23:19;;;;;;;7.82;3.10;;;10.60;90.30;;;;;;4916496;29;20246;-86
2022/04/29 00:25:48;;;;;;;2.65;2.33;;;10.60;90.80;;;;;;4916291;29;20241;-86
2022/04/29 00:28:17;;;;;;;4.88;3.10;;;10.60;90.50;;;;;;4916390;29;20207;-86
2022/04/29 00:30:45;;;;;;;3.15;2.83;;;10.50;90.70;;;;;;4915966;29;20298;-84
2022/04/29 00:33:13;;;;;;;3.85;2.90;;;10.50;91.60;;;;;;4916272;29;20230;-86
2022/04/29 00:35:42;;;;;;;4.05;3.20;;;10.50;92.10;;;;;;4916291;29;20266;-85
2022/04/29 00:38:15;;;;;;;6.25;3.22;;;10.40;92.90;;;;;;4917008;29;20203;-86
2022/04/29 00:40:45;;;;;;;3.67;3.40;;;10.40;93.00;;;;;;4919945;29;20202;-86
2022/04/29 00:43:14;;;;;;;5.65;3.17;;;10.40;93.60;;;;;;4920138;29;20301;-86
2022/04/29 00:45:42;;;;;;;5.65;2.70;;;10.40;93.90;;;;;;4919761;29;20238;-85
2022/04/29 00:48:11;;;;;;;2.47;2.28;;;10.40;93.50;;;;;;4920106;29;20215;-86
2022/04/29 00:50:39;;;;;;;3.38;3.03;;;10.40;92.90;;;;;;4919448;29;20253;-85
2022/04/29 00:53:10;;;;;;;3.53;2.75;;;10.30;93.20;;;;;;4920140;29;20257;-86
2022/04/29 00:55:40;;;;;;;3.20;2.90;;;10.30;92.80;;;;;;4919537;29;20289;-86
2022/04/29 00:58:15;;;;;;;3.03;2.83;;;10.20;94.40;;;;;;4919724;29;20303;-86
2022/04/29 01:00:44;;;;;;;3.33;3.03;;;10.20;94.10;;;;;;4919500;29;20240;-86
2022/04/29 01:03:14;;;;;;;3.83;3.05;;;10.10;94.90;;;;;;4919665;29;20234;-85
2022/04/29 01:05:43;;;;;;;8.38;3.17;;;10.10;94.80;;;;;;4920313;29;20206;-85
2022/04/29 01:08:12;;;;;;;3.70;3.10;;;10.10;95.60;;;;;;4919727;29;20289;-85
2022/04/29 01:10:40;;;;;;;2.90;2.70;;;10.10;95.20;;;;;;4919141;29;20222;-86
2022/04/29 01:13:10;;;;;;;3.58;2.90;;;10.10;95.00;;;;;;4919353;29;20322;-86
2022/04/29 01:15:39;;;;;;;3.38;3.08;;;10.10;94.70;;;;;;4919441;29;20241;-86
2022/04/29 01:18:09;;;;;;;3.30;3.00;;;10.10;95.30;;;;;;4919574;29;20246;-85
2022/04/29 01:20:38;;;;;;;3.38;3.08;;;10.10;95.10;;;;;;4919420;29;20202;-85
2022/04/29 01:23:09;;;;;;;2.30;2.15;;;10.10;96.70;;;;;;4919289;29;20230;-86
2022/04/29 01:25:38;;;;;;;3.10;2.88;;;10.00;95.90;;;;;;4919473;29;20236;-86
2022/04/29 01:28:07;;;;;;;3.42;3.13;;;10.00;96.10;;;;;;4919220;29;20301;-85
2022/04/29 01:30:36;;;;;;;2.50;2.30;;;10.00;96.60;;;;;;4918606;29;20314;-85
2022/04/29 01:33:06;;;;;;;3.10;2.80;;;9.90;97.00;;;;;;4919140;29;20242;-86
2022/04/29 01:35:34;;;;;;;3.50;3.13;;;9.90;97.50;;;;;;4919059;29;20266;-86
2022/04/29 01:38:03;;;;;;;3.72;3.20;;;9.80;97.80;;;;;;4918846;29;20271;-86
2022/04/29 01:40:32;;;;;;;3.20;3.00;;;9.80;98.10;;;;;;4918552;29;20294;-85
2022/04/29 01:43:02;;;;;;;3.40;2.90;;;9.70;98.90;;;;;;4918623;29;20253;-85
2022/04/29 01:45:30;;;;;;;4.45;2.78;;;9.70;97.80;;;;;;4919249;29;20478;-86
2022/04/29 01:47:59;;;;;;;2.95;2.70;;;9.70;98.30;;;;;;4919080;29;20289;-86
2022/04/29 01:50:27;;;;;;;2.63;2.42;;;9.80;99.50;;;;;;4917614;29;20343;-85
2022/04/29 01:52:55;;;;;;;4.00;3.15;;;9.70;98.90;;;;;;4918383;29;20259;-85
2022/04/29 01:55:24;;;;;;;3.65;3.30;;;9.70;98.20;;;;;;4919038;29;20314;-86
2022/04/29 01:57:56;;;;;;;2.70;2.50;;;9.70;99.00;;;;;;4918702;29;20286;-86
2022/04/29 02:00:25;;;;;;;3.10;2.80;;;9.70;99.60;;;;;;4918570;29;20235;-85
2022/04/29 02:02:55;;;;;;;6.68;2.83;;;9.80;98.80;;;;;;4918661;29;20282;-86
2022/04/29 02:05:24;;;;;;;2.67;2.38;;;9.70;99.00;;;;;;4918703;29;20285;-86
2022/04/29 02:07:52;;;;;;;3.15;2.78;;;9.70;99.90;;;;;;4918551;29;20274;-86
2022/04/29 02:10:21;;;;;;;3.08;2.78;;;9.70;99.90;;;;;;4918043;29;20233;-86
2022/04/29 02:12:49;;;;;;;3.17;2.95;;;9.70;99.90;;;;;;4918397;29;20325;-86
2022/04/29 02:15:20;;;;;;;3.58;2.50;;;9.60;99.90;;;;;;4918733;29;20232;-86
2022/04/29 02:17:48;;;;;;;3.78;3.35;;;9.60;99.90;;;;;;4918496;29;20309;-86
2022/04/29 02:20:16;;;;;;;2.33;2.20;;;9.70;99.90;;;;;;4918190;29;20290;-86
2022/04/29 02:22:45;;;;;;;3.28;2.90;;;9.60;99.90;;;;;;4918358;29;20306;-86
2022/04/29 02:25:13;;;;;;;3.10;2.90;;;9.60;99.90;;;;;;4918269;29;20269;-86
2022/04/29 02:27:42;;;;;;;2.88;2.67;;;9.60;99.90;;;;;;4918081;29;20237;-85
2022/04/29 02:30:12;;;;;;;3.30;2.95;;;9.60;99.90;;;;;;4917504;29;20241;-85
2022/04/29 02:32:43;;;;;;;4.30;3.58;;;9.60;99.90;;;;;;4917903;29;20234;-86
2022/04/29 02:35:11;;;;;;;5.78;2.97;;;9.60;99.90;;;;;;4918404;29;20234;-85
2022/04/29 02:37:40;;;;;;;3.00;2.80;;;9.60;99.90;;;;;;4917975;29;20218;-85
2022/04/29 02:40:09;;;;;;;3.95;3.20;;;9.50;99.90;;;;;;4917802;29;20270;-86
2022/04/29 02:42:38;;;;;;;3.05;2.85;;;9.50;99.90;;;;;;4917610;29;20234;-84
2022/04/29 02:45:07;;;;;;;4.57;3.08;;;9.50;99.90;;;;;;4917804;29;20289;-85
2022/04/29 02:47:36;;;;;;;3.13;2.65;;;9.50;99.90;;;;;;4918103;29;20286;-86
2022/04/29 02:50:07;;;;;;;3.72;3.05;;;9.50;99.90;;;;;;4917708;29;20298;-85
2022/04/29 02:52:35;;;;;;;2.90;2.55;;;9.50;99.90;;;;;;4917412;29;20226;-85
2022/04/29 02:55:04;;;;;;;3.40;3.10;;;9.50;99.90;;;;;;4917400;29;20242;-86
2022/04/29 02:57:32;;;;;;;6.22;3.22;;;9.40;99.90;;;;;;4917624;29;20218;-85
2022/04/29 03:00:00;;;;;;;2.78;2.45;;;9.50;99.90;;;;;;4917682;29;20289;-86
2022/04/29 03:02:29;;;;;;;3.63;3.13;;;9.40;99.90;;;;;;4917143;29;20230;-86
2022/04/29 03:04:57;;;;;;;3.30;3.00;;;9.50;99.90;;;;;;4917237;29;20212;-86
2022/04/29 03:07:27;;;;;;;4.20;3.03;;;9.50;99.90;;;;;;4917745;29;20230;-85
2022/04/29 03:09:55;;;;;;;3.55;3.25;;;9.50;99.90;;;;;;4917264;29;20214;-86
2022/04/29 03:12:24;;;;;;;4.40;3.75;;;9.50;99.90;;;;;;4917119;29;20299;-86
2022/04/29 03:14:52;;;;;;;3.78;3.30;;;9.50;99.90;;;;;;4917481;29;20302;-86
2022/04/29 03:20:07;;;;;;;2.53;2.33;;;9.50;99.90;;;;;;4916912;29;20275;-86
2022/04/29 03:22:37;;;;;;;2.70;2.50;;;9.50;99.90;;;;;;4916941;29;20227;-86
2022/04/29 03:25:07;;;;;;;3.58;3.28;;;9.50;99.90;;;;;;4917466;29;20245;-86
2022/04/29 03:27:35;;;;;;;3.38;3.08;;;9.50;99.90;;;;;;4917267;29;20241;-86
2022/04/29 03:30:04;;;;;;;4.05;3.03;;;9.50;99.90;;;;;;4916604;29;20295;-86
2022/04/29 03:32:33;;;;;;;4.43;2.80;;;9.50;99.90;;;;;;4916496;29;20240;-86
2022/04/29 03:35:01;;;;;;;4.53;3.17;;;9.40;99.90;;;;;;4916689;29;20245;-85
2022/04/29 03:37:31;;;;;;;2.97;2.78;;;9.40;99.90;;;;;;4916863;29;20269;-86
2022/04/29 03:40:01;;;;;;;3.13;2.92;;;9.40;99.90;;;;;;4917061;29;20238;-85
2022/04/29 03:42:29;;;;;;;3.63;3.20;;;9.30;99.90;;;;;;4916761;29;20274;-85
2022/04/29 03:44:58;;;;;;;2.88;2.63;;;9.30;99.90;;;;;;4917269;29;20297;-86
2022/04/29 03:47:26;;;;;;;3.58;3.00;;;9.30;99.90;;;;;;4916749;29;20289;-86
2022/04/29 03:49:56;;;;;;;3.15;2.85;;;9.30;99.90;;;;;;4917098;29;20233;-86
2022/04/29 03:52:25;;;;;;;3.10;2.78;;;9.30;99.90;;;;;;4916480;29;20258;-86
2022/04/29 03:54:53;;;;;;;4.20;3.80;;;9.30;99.90;;;;;;4916965;29;20274;-85
2022/04/29 03:57:23;;;;;;;4.32;3.47;;;9.30;99.90;;;;;;4916621;29;20245;-86
2022/04/29 03:59:51;;;;;;;4.43;3.40;;;9.30;99.90;;;;;;4916256;29;20300;-86
2022/04/29 04:02:20;;;;;;;4.78;2.92;;;9.30;99.90;;;;;;4915897;29;20234;-86
2022/04/29 04:04:48;;;;;;;3.47;3.17;;;9.30;99.90;;;;;;4916359;29;20239;-86
2022/04/29 04:07:17;;;;;;;3.17;2.88;;;9.30;99.90;;;;;;4916362;29;20238;-85
2022/04/29 04:09:45;;;;;;;3.63;3.33;;;9.40;99.90;;;;;;4916733;29;20241;-85
2022/04/29 04:12:13;;;;;;;3.95;3.28;;;9.30;99.90;;;;;;4915595;29;20342;-85
2022/04/29 04:14:43;;;;;;;3.13;2.90;;;9.40;99.90;;;;;;4915889;29;20289;-85
2022/04/29 04:17:11;;;;;;;3.45;3.05;;;9.40;99.90;;;;;;4916311;29;20222;-85
2022/04/29 04:19:40;;;;;;;2.95;2.70;;;9.40;99.90;;;;;;4916469;29;20246;-85
2022/04/29 04:22:09;;;;;;;3.63;3.20;;;9.40;99.90;;;;;;4916102;29;20242;-85
2022/04/29 04:24:38;;;;;;;3.15;2.95;;;9.50;99.90;;;;;;4908550;29;20234;-86
2022/04/29 04:27:06;;;;;;;4.03;3.10;;;9.50;99.90;;;;;;4916623;29;20220;-85
2022/04/29 04:29:35;;;;;;;4.03;3.63;;;9.50;99.90;;;;;;4916413;29;20289;-85
2022/04/29 04:32:06;;;;;;;2.78;2.58;;;9.60;99.90;;;;;;4915734;29;20234;-86
2022/04/29 04:34:53;;;;;;;4.32;3.50;;;9.60;99.90;;;;;;4916302;29;20234;-85
2022/04/29 04:37:22;;;;;;;4.40;3.70;;;9.60;99.90;;;;;;4916685;29;20226;-85
2022/04/29 04:39:51;;;;;;;4.68;3.72;;;9.60;99.90;;;;;;4916177;29;20293;-85
2022/04/29 04:42:20;;;;;;;3.88;3.58;;;9.70;99.90;;;;;;4915856;29;20281;-85
2022/04/29 04:44:49;;;;;;;3.15;2.88;;;9.70;99.90;;;;;;4916249;29;20297;-85
2022/04/29 04:47:20;;;;;;;3.42;3.13;;;9.80;99.90;;;;;;4915866;29;20207;-85
2022/04/29 04:49:49;;;;;;;3.70;3.40;;;9.80;99.90;;;;;;4916116;29;20238;-86
2022/04/29 04:52:17;;;;;;;4.13;3.72;;;9.80;99.90;;;;;;4915825;29;20321;-85
2022/04/29 04:54:46;;;;;;;3.80;3.42;;;9.90;99.90;;;;;;4916143;29;20218;-85
2022/04/29 04:57:14;;;;;;;3.30;2.90;;;10.00;99.90;;;;;;4916068;29;20293;-85
2022/04/29 04:59:42;;;;;;;3.55;3.25;;;10.10;99.90;;;;;;4916012;29;20214;-85
2022/04/29 05:02:11;;;;;;;6.57;3.45;;;10.10;99.90;;;;;;4915507;29;20230;-85
2022/04/29 05:04:41;;;;;;;3.38;3.10;;;10.30;99.90;;;;;;4915824;29;20218;-85
2022/04/29 05:07:09;;;;;;;5.50;3.30;;;10.30;99.90;;;;;;4916184;29;20293;-86
2022/04/29 05:09:38;;;;;;;4.28;3.60;;;10.50;99.90;;;;;;4916123;29;20211;-86
2022/04/29 05:12:07;;;;;;;5.75;3.75;;;10.50;99.90;;;;;;4915563;29;20233;-85
2022/04/29 05:14:36;;;;;;;3.72;3.42;;;10.60;99.90;;;;;;4915804;29;20293;-85
2022/04/29 05:17:05;;;;;;;3.45;2.90;;;10.60;99.90;;;;;;4915804;29;20300;-86
2022/04/29 05:19:33;;;;;;;4.63;3.97;;;10.70;99.90;;;;;;4915819;29;20278;-85
2022/04/29 05:22:04;;;;;;;5.15;3.95;;;10.70;99.90;;;;;;4915691;29;20219;-85
2022/04/29 05:24:32;;;;;;;3.90;3.55;;;10.80;99.90;;;;;;4915685;29;20302;-86
2022/04/29 05:27:01;;;;;;;4.40;3.40;;;10.80;99.90;;;;;;4918280;29;20234;-85
2022/04/29 05:29:29;;;;;;;5.38;4.28;;;10.90;99.90;;;;;;4918746;29;20243;-86
2022/04/29 05:31:57;;;;;;;6.03;4.38;;;10.90;99.90;;;;;;4918646;29;20318;-85
2022/04/29 05:34:26;;;;;;;4.35;3.58;;;10.90;99.90;;;;;;4919209;29;20206;-85
2022/04/29 05:36:54;;;;;;;4.57;4.18;;;11.10;99.90;;;;;;4919249;29;20234;-86
2022/04/29 05:42:18;;;;;;;7.30;3.75;;;11.30;99.90;;;;;;4918574;29;20313;-86
2022/04/29 05:44:47;;;;;;;3.63;3.35;;;11.40;99.90;;;;;;4912419;29;20265;-85
2022/04/29 05:47:15;;;;;;;4.13;3.63;;;11.50;99.90;;;;;;4919429;29;20211;-85
2022/04/29 05:49:44;;;;;;;3.90;3.60;;;11.60;99.90;;;;;;4918861;29;20282;-86
2022/04/29 05:52:13;;;;;;;4.40;4.00;;;11.60;99.90;;;;;;4918402;29;20231;-85
2022/04/29 05:54:42;;;;;;;9.13;3.50;;;11.70;99.90;;;;;;4918866;29;20218;-86
2022/04/29 05:57:11;;;;;;;6.05;4.22;;;11.80;99.90;;;;;;4918876;29;20237;-85
2022/04/29 05:59:40;;;;;;;7.72;4.82;;;11.80;99.90;;;;;;4918710;29;20210;-86
2022/04/29 06:02:09;;;;;;;4.95;3.80;;;12.00;99.90;;;;;;4917856;29;20222;-85
2022/04/29 06:04:38;;;;;;;4.72;3.90;;;12.00;99.90;;;;;;4918495;29;20274;-86
2022/04/29 06:07:06;;;;;;;5.30;4.20;;;12.10;99.90;;;;;;4918622;29;20229;-86
2022/04/29 06:09:34;;;;;;;3.72;3.42;;;12.10;99.90;;;;;;4918749;29;20305;-85
2022/04/29 06:12:05;;;;;;;3.78;3.30;;;12.20;99.90;;;;;;4918237;29;20333;-85
2022/04/29 06:14:35;;;;;;;11.70;4.40;;;12.30;99.90;;;;;;4918582;29;20218;-85
2022/04/29 06:17:04;;;;;;;4.75;3.63;;;12.40;99.90;;;;;;4918143;29;20245;-85
2022/04/29 06:19:32;;;;;;;5.28;4.03;;;12.50;99.90;;;;;;4918429;29;20276;-85
2022/04/29 06:22:00;;;;;;;4.97;3.38;;;12.60;99.90;;;;;;4918164;29;20226;-85
2022/04/29 06:24:29;;;;;;;4.60;4.05;;;12.70;99.90;;;;;;4918061;29;20272;-85
2022/04/29 06:27:18;;;;;;;4.47;3.75;;;12.80;99.60;;;;;;4918021;29;20217;-85
2022/04/29 06:29:47;;;;;;;4.38;3.35;;;12.90;99.90;;;;;;4918259;29;20242;-85
2022/04/29 06:32:15;;;;;;;6.22;4.40;;;13.00;99.20;;;;;;4917733;29;20267;-85
2022/04/29 06:34:44;;;;;;;3.63;3.33;;;13.10;99.20;;;;;;4918130;29;20248;-85
2022/04/29 06:37:12;;;;;;;5.40;4.07;;;13.20;98.40;;;;;;4917210;29;20210;-85
2022/04/29 06:39:40;;;;;;;4.78;3.90;;;13.30;98.70;;;;;;4917994;29;20297;-85
2022/04/29 06:42:10;;;;;;;3.90;3.50;;;13.40;98.20;;;;;;4917707;29;20314;-85
2022/04/29 06:44:40;;;;;;;4.93;3.30;;;13.60;96.50;;;;;;4917976;29;20206;-85
2022/04/29 06:47:08;;;;;;;5.18;3.10;;;13.70;96.80;;;;;;4917857;29;20230;-85
2022/04/29 06:49:38;;;;;;;4.68;3.53;;;13.70;96.50;;;;;;4917863;29;20207;-85
2022/04/29 06:52:07;;;;;;;3.83;3.53;;;13.80;96.50;;;;;;4917498;29;20234;-85
2022/04/29 06:54:36;;;;;;;4.18;3.78;;;14.00;96.00;;;;;;4917375;29;20322;-85
2022/04/29 06:57:06;;;;;;;4.82;3.88;;;14.00;95.30;;;;;;4917562;29;20202;-85
2022/04/29 06:59:34;;;;;;;8.23;3.90;;;14.20;96.70;;;;;;4917860;29;20245;-85
2022/04/29 07:02:04;;;;;;;4.10;3.65;;;14.30;97.10;;;;;;4917339;29;20286;-85
2022/04/29 07:04:33;;;;;;;5.57;3.80;;;14.40;95.00;;;;;;4917545;29;20214;-85
2022/04/29 07:07:01;;;;;;;4.60;3.55;;;14.60;95.70;;;;;;4917481;29;20207;-85
2022/04/29 07:09:35;;;;;;;4.78;4.07;;;14.80;95.50;;;;;;4917492;29;20214;-85
2022/04/29 07:12:23;;;;;;;6.95;3.38;;;15.10;95.20;;;;;;4917329;29;20230;-84
2022/04/29 07:14:52;;;;;;;9.57;3.60;;;15.30;95.00;;;;;;4917665;29;20242;-85
2022/04/29 07:17:23;;;;;;;5.60;4.40;;;15.50;93.40;;;;;;4917240;29;20267;-84
2022/04/29 07:19:52;;;;;;;6.60;4.78;;;15.70;93.80;;;;;;4917260;29;20278;-84
2022/04/29 07:22:28;;;;;;;4.53;3.40;;;16.00;93.70;;;;;;4916476;29;20226;-85
2022/04/29 07:24:56;;;;;;;12.57;3.80;;;16.30;92.20;;;;;;4917009;29;20306;-85
2022/04/29 07:27:28;;;;;;;3.60;3.30;;;16.50;92.10;;;;;;4917263;29;20210;-84
2022/04/29 07:29:56;;;;;;;5.15;4.28;;;16.80;90.40;;;;;;4916941;29;20270;-84
2022/04/29 07:32:29;;;;;;;4.18;3.67;;;17.60;89.50;;;;;;4916666;29;20331;-84
2022/04/29 07:43:17;;;;;;;3.42;3.13;;;21.50;75.10;;;;;;4916928;29;20235;-85
2022/04/29 07:45:45;;;;;;;3.63;3.33;;;22.40;69.90;;;;;;4916664;29;20293;-84
2022/04/29 07:48:15;;;;;;;5.28;3.90;;;23.90;67.70;;;;;;4915956;29;20214;-85
2022/04/29 07:50:44;;;;;;;3.22;3.03;;;25.10;62.10;;;;;;4916741;29;20209;-85
2022/04/29 07:53:13;;;;;;;3.67;3.38;;;26.30;57.20;;;;;;4916559;29;20227;-84
2022/04/29 07:55:42;;;;;;;3.65;3.30;;;26.60;56.60;;;;;;4916770;29;20215;-85
2022/04/29 07:58:10;;;;;;;7.07;3.60;;;27.50;53.70;;;;;;4916449;29;20266;-85
2022/04/29 08:00:39;;;;;;;3.60;3.22;;;28.40;50.70;;;;;;4916278;29;20297;-85
2022/04/29 08:03:28;;;;;;;5.25;3.00;;;29.00;48.60;;;;;;4915790;29;20209;-85
2022/04/29 08:05:58;;;;;;;7.50;3.30;;;28.90;50.20;;;;;;4916655;29;20222;-85
2022/04/29 08:08:27;;;;;;;3.30;3.00;;;30.10;47.00;;;;;;4916782;29;20218;-85
2022/04/29 08:10:55;;;;;;;2.97;2.72;;;30.30;45.60;;;;;;4916238;29;20237;-85
2022/04/29 08:13:24;;;;;;;2.90;2.70;;;31.30;44.30;;;;;;4916233;29;20229;-85
2022/04/29 08:15:52;;;;;;;3.60;2.72;;;32.00;44.80;;;;;;4916356;29;20210;-84
2022/04/29 08:18:21;;;;;;;4.70;2.80;;;32.00;44.80;;;;;;4916540;29;20281;-84
2022/04/29 08:20:50;;;;;;;3.00;2.80;;;31.90;43.90;;;;;;4916224;29;20247;-85
2022/04/29 08:23:19;;;;;;;3.83;3.53;;;32.00;40.20;;;;;;4916734;29;20317;-84
2022/04/29 08:25:47;;;;;;;4.00;2.85;;;32.00;40.40;;;;;;4916382;29;20297;-85
2022/04/29 08:28:16;;;;;;;3.63;3.33;;;32.30;40.60;;;;;;4916349;29;20221;-85
2022/04/29 08:30:45;;;;;;;2.67;2.53;;;32.40;38.80;;;;;;4916356;29;20234;-85
2022/04/29 08:33:21;;;;;;;2.55;2.35;;;31.80;38.90;;;;;;4916026;29;20231;-85
2022/04/29 08:35:54;;;;;;;3.42;3.13;;;31.50;39.30;;;;;;4916468;29;20209;-84
2022/04/29 08:38:23;;;;;;;4.05;2.95;;;32.00;42.00;;;;;;4916378;29;20297;-85
2022/04/29 08:40:51;;;;;;;2.53;2.35;;;32.50;40.40;;;;;;4915915;29;20220;-85
2022/04/29 08:43:21;;;;;;;3.55;3.08;;;32.70;40.60;;;;;;4916032;29;20264;-84
2022/04/29 08:45:49;;;;;;;3.03;2.78;;;32.80;36.70;;;;;;4916581;29;20213;-84
2022/04/29 08:48:19;;;;;;;3.17;2.50;;;33.00;38.40;;;;;;4916351;29;20335;-84
2022/04/29 08:50:47;;;;;;;2.90;2.70;;;32.80;38.10;;;;;;4916095;29;20301;-84
2022/04/29 08:53:18;;;;;;;3.38;3.08;;;32.30;38.70;;;;;;4915791;29;20268;-84
2022/04/29 08:58:41;;;;;;;3.60;3.10;;;31.60;39.50;;;;;;4916229;29;20288;-84
2022/04/29 09:01:13;;;;;;;3.28;2.97;;;31.70;41.20;;;;;;4918821;29;20256;-85
2022/04/29 09:03:43;;;;;;;3.03;2.83;;;32.00;37.50;;;;;;4919585;29;20275;-84
2022/04/29 09:06:14;;;;;;;3.05;2.70;;;31.40;39.40;;;;;;4919436;29;20225;-84
2022/04/29 09:08:51;;;;;;;3.33;3.03;;;31.60;38.60;;;;;;4919651;29;20268;-84
2022/04/29 09:11:23;;;;;;;3.10;2.90;;;31.40;40.10;;;;;;4919213;29;20213;-85
2022/04/29 09:13:52;;;;;;;5.68;3.20;;;31.40;40.50;;;;;;4919644;29;20280;-85
2022/04/29 09:16:23;;;;;;;3.58;2.97;;;31.90;37.80;;;;;;4919351;29;20233;-84
2022/04/29 09:18:53;;;;;;;3.25;2.97;;;31.40;39.70;;;;;;4919715;29;20233;-84
2022/04/29 09:21:25;;;;;;;2.47;2.28;;;31.00;38.20;;;;;;4919238;29;20229;-84
2022/04/29 09:23:56;;;;;;;2.50;2.30;;;30.90;40.70;;;;;;4919302;29;20232;-84
2022/04/29 09:26:26;;;;;;;3.20;2.90;;;30.90;38.60;;;;;;4919719;29;20209;-84
2022/04/29 09:28:56;;;;;;;2.88;2.63;;;30.70;36.80;;;;;;4919269;29;20229;-85
2022/04/29 09:31:24;;;;;;;4.40;3.75;;;30.50;37.50;;;;;;4919159;29;20260;-84
2022/04/29 09:34:12;;;;;;;3.70;3.40;;;30.40;38.70;;;;;;4918479;29;20229;-84
2022/04/29 09:36:40;;;;;;;2.60;2.40;;;30.20;39.90;;;;;;4919181;29;20262;-84
2022/04/29 09:39:27;;;;;;;3.60;2.80;;;29.70;39.50;;;;;;4919334;29;20253;-84
2022/04/29 09:41:56;;;;;;;6.43;2.72;;;29.90;39.80;;;;;;4918904;29;20321;-85
2022/04/29 09:44:28;;;;;;;4.20;2.90;;;29.60;39.70;;;;;;4919299;29;20210;-85
2022/04/29 09:46:57;;;;;;;9.25;2.78;;;29.60;39.90;;;;;;4918975;29;20281;-85
2022/04/29 09:49:29;;;;;;;4.03;2.90;;;29.80;40.10;;;;;;4918819;29;20286;-84
2022/04/29 09:51:57;;;;;;;5.30;3.35;;;29.90;39.10;;;;;;4918531;29;20261;-84
2022/04/29 09:54:28;;;;;;;2.85;2.65;;;29.60;38.00;;;;;;4918893;29;20222;-85
2022/04/29 09:57:05;;;;;;;3.38;3.08;;;29.70;42.60;;;;;;4919083;29;20210;-85
2022/04/29 09:59:35;;;;;;;3.53;2.97;;;29.80;41.50;;;;;;4918902;29;20274;-84
2022/04/29 10:02:05;;;;;;;2.70;2.50;;;29.60;41.80;;;;;;4918312;29;20226;-84
2022/04/29 10:04:36;;;;;;;3.13;2.88;;;29.20;41.40;;;;;;4918576;29;20198;-85
2022/04/29 10:07:08;;;;;;;5.10;3.13;;;29.50;41.50;;;;;;4919133;29;20319;-85
2022/04/29 10:09:41;;;;;;;4.65;3.33;;;29.70;42.20;;;;;;4918559;29;20226;-85
2022/04/29 10:12:13;;;;;;;5.38;2.67;;;29.10;40.50;;;;;;4917146;29;20230;-84
2022/04/29 10:14:43;;;;;;;3.83;2.88;;;27.90;40.80;;;;;;4918255;29;20250;-84
2022/04/29 10:22:51;;;;;;;3.28;3.08;;;25.90;42.80;;;;;;4918350;29;20289;-84
2022/04/29 10:25:22;;;;;;;3.92;3.03;;;26.10;43.50;;;;;;4918232;29;20293;-84
2022/04/29 10:27:52;;;;;;;3.45;2.92;;;26.40;46.60;;;;;;4918257;29;20245;-85
2022/04/29 10:30:27;;;;;;;4.07;3.13;;;26.40;43.10;;;;;;4918029;29;20278;-84
2022/04/29 10:33:03;;;;;;;3.15;2.95;;;26.40;44.10;;;;;;4918141;29;20245;-84
2022/04/29 10:35:53;;;;;;;4.07;2.92;;;26.00;44.10;;;;;;4917698;29;20321;-84
2022/04/29 10:38:27;;;;;;;2.88;2.67;;;25.70;44.20;;;;;;4918119;29;20302;-84
2022/04/29 10:41:17;;;;;;;3.28;2.88;;;26.10;45.60;;;;;;4918104;29;20284;-85
2022/04/29 10:44:02;;;;;;;4.38;3.67;;;26.70;44.80;;;;;;4918088;29;20238;-84
2022/04/29 10:46:35;;;;;;;3.47;3.17;;;26.90;40.90;;;;;;4916931;29;20313;-85
2022/04/29 10:49:24;;;;;;;3.50;2.92;;;27.10;43.30;;;;;;4917685;29;20282;-85
2022/04/29 10:51:54;;;;;;;4.32;3.05;;;27.30;43.40;;;;;;4917540;29;20317;-84
2022/04/29 10:54:45;;;;;;;4.75;3.40;;;27.80;43.40;;;;;;4917633;29;20231;-84
2022/04/29 10:57:17;;;;;;;4.20;3.17;;;28.30;43.20;;;;;;4918021;29;20214;-84
2022/04/29 10:59:50;;;;;;;3.67;3.10;;;28.90;41.50;;;;;;4917725;29;20215;-84
2022/04/29 11:02:28;;;;;;;3.70;3.15;;;28.80;41.70;;;;;;4917223;29;20342;-84
2022/04/29 11:04:59;;;;;;;3.20;3.00;;;28.70;40.80;;;;;;4917388;29;20226;-83
2022/04/29 11:07:52;;;;;;;3.35;3.15;;;28.50;42.50;;;;;;4917629;29;20305;-84
2022/04/29 11:10:24;;;;;;;4.97;3.30;;;28.30;42.00;;;;;;4917315;29;20252;-84
2022/04/29 11:13:00;;;;;;;3.50;3.20;;;28.20;43.90;;;;;;4916733;29;20261;-83
2022/04/29 11:15:45;;;;;;;3.17;2.90;;;28.00;43.30;;;;;;4916797;29;20313;-84
2022/04/29 11:18:15;;;;;;;3.03;2.67;;;28.20;43.30;;;;;;4917272;29;20224;-84
2022/04/29 11:20:47;;;;;;;4.88;3.17;;;28.40;42.40;;;;;;4916772;29;20289;-84
2022/04/29 11:26:12;;;;;;;3.08;2.88;;;28.60;41.70;;;;;;4917259;29;20199;-84
2022/04/29 11:28:42;;;;;;;4.20;3.80;;;28.60;42.00;;;;;;4916877;29;20249;-84
2022/04/29 11:31:11;;;;;;;4.65;3.70;;;28.60;40.00;;;;;;4916728;29;20238;-84
2022/04/29 11:33:40;;;;;;;2.63;2.42;;;28.60;42.50;;;;;;4916943;29;20273;-84
2022/04/29 11:36:10;;;;;;;3.17;2.97;;;28.20;40.60;;;;;;4916697;29;20245;-84
2022/04/29 11:38:43;;;;;;;4.05;3.65;;;28.10;41.40;;;;;;4916593;29;20209;-84
2022/04/29 11:41:19;;;;;;;3.72;3.30;;;28.10;41.10;;;;;;4916460;29;20210;-84
2022/04/29 11:43:51;;;;;;;3.45;2.58;;;28.10;42.20;;;;;;4916574;29;20210;-83
2022/04/29 11:46:20;;;;;;;3.08;2.80;;;27.90;42.30;;;;;;4916790;29;20252;-83
2022/04/29 11:48:54;;;;;;;3.20;2.90;;;27.60;39.70;;;;;;4916863;29;20219;-84
2022/04/29 11:51:22;;;;;;;3.63;3.33;;;27.40;43.80;;;;;;4916475;29;20483;-84
2022/04/29 11:54:01;;;;;;;3.65;3.20;;;27.20;42.50;;;;;;4916502;29;20206;-84
2022/04/29 11:56:35;;;;;;;3.08;2.88;;;26.80;42.80;;;;;;4916110;29;20276;-84
2022/04/29 11:59:08;;;;;;;3.95;3.65;;;26.60;43.40;;;;;;4916553;29;20285;-84
2022/04/29 12:01:38;;;;;;;2.78;2.58;;;26.10;41.40;;;;;;4916305;29;20286;-85
2022/04/29 12:04:07;;;;;;;2.80;2.60;;;26.10;42.40;;;;;;4916358;29;20230;-84
2022/04/29 12:06:38;;;;;;;4.82;3.20;;;25.90;42.70;;;;;;4916703;29;20265;-84
2022/04/29 12:09:06;;;;;;;3.83;3.28;;;25.50;44.20;;;;;;4916183;29;20215;-84
2022/04/29 12:11:36;;;;;;;3.85;3.55;;;25.30;44.40;;;;;;4915591;29;20230;-84
2022/04/29 12:14:21;;;;;;;3.10;2.90;;;25.50;43.80;;;;;;4916194;29;20297;-84
2022/04/29 12:16:50;;;;;;;3.47;3.17;;;25.60;43.60;;;;;;4916168;29;20265;-84
2022/04/29 12:19:21;;;;;;;4.30;3.15;;;26.00;44.30;;;;;;4916241;29;20211;-84
2022/04/29 12:21:57;;;;;;;3.60;3.30;;;26.40;45.00;;;;;;4915799;29;20233;-84
2022/04/29 12:24:26;;;;;;;2.90;2.70;;;26.60;43.00;;;;;;4916562;29;20210;-84
2022/04/29 12:27:05;;;;;;;3.72;3.42;;;26.90;40.90;;;;;;4916440;29;20206;-85
2022/04/29 12:29:38;;;;;;;3.03;2.72;;;27.20;39.90;;;;;;4916539;29;20218;-84
2022/04/29 12:35:14;;;;;;;5.88;3.08;;;27.10;41.50;;;;;;4917695;29;20301;-85
2022/04/29 12:37:51;;;;;;;4.13;3.72;;;27.20;42.10;;;;;;4920042;29;20296;-85
2022/04/29 12:40:40;;;;;;;3.40;3.10;;;27.30;42.30;;;;;;4919676;29;20411;-85
2022/04/29 12:43:12;;;;;;;3.33;3.03;;;27.10;41.50;;;;;;4920069;29;20226;-85
2022/04/29 12:45:42;;;;;;;3.00;2.63;;;26.80;42.70;;;;;;4919852;29;20229;-85
2022/04/29 12:48:14;;;;;;;3.25;2.95;;;26.50;42.50;;;;;;4920038;29;20230;-85
2022/04/29 12:50:43;;;;;;;4.05;3.17;;;26.10;42.40;;;;;;4921550;29;20214;-87
2022/04/29 12:53:16;;;;;;;4.05;3.65;;;25.70;42.40;;;;;;4919888;29;20230;-85
2022/04/29 12:55:52;;;;;;;3.35;3.05;;;25.30;43.20;;;;;;4920072;29;20266;-86
2022/04/29 12:58:22;;;;;;;3.72;3.25;;;24.70;44.40;;;;;;4919792;29;20213;-85
2022/04/29 13:01:06;;;;;;;3.65;3.35;;;24.50;44.60;;;;;;4919774;29;20238;-86
2022/04/29 13:03:36;;;;;;;3.20;3.00;;;24.50;45.70;;;;;;4919462;29;20262;-86
2022/04/29 13:06:04;;;;;;;3.47;3.17;;;24.40;44.10;;;;;;4919586;29;20282;-85
2022/04/29 13:08:33;;;;;;;3.45;3.08;;;24.30;44.50;;;;;;4919762;29;20210;-85
2022/04/29 13:11:03;;;;;;;7.15;3.38;;;24.20;45.50;;;;;;4919173;29;20298;-85
2022/04/29 13:13:32;;;;;;;7.85;2.97;;;24.20;43.60;;;;;;4919099;29;20211;-85
2022/04/29 13:16:02;;;;;;;3.40;3.00;;;24.40;45.20;;;;;;4919644;29;20309;-85
2022/04/29 13:18:30;;;;;;;3.70;3.15;;;24.60;45.40;;;;;;4919470;29;20270;-85
2022/04/29 13:21:00;;;;;;;2.78;2.53;;;24.80;44.80;;;;;;4919175;29;20222;-85
2022/04/29 13:23:28;;;;;;;2.42;2.20;;;24.90;45.00;;;;;;4919649;29;20213;-85
2022/04/29 13:25:57;;;;;;;3.38;3.08;;;25.10;44.20;;;;;;4926250;29;20207;-85
2022/04/29 13:28:26;;;;;;;3.67;3.08;;;25.20;44.30;;;;;;4919222;29;20211;-85
2022/04/29 13:30:55;;;;;;;4.68;2.53;;;25.10;42.80;;;;;;4919239;29;20301;-85
2022/04/29 13:33:24;;;;;;;3.20;2.50;;;24.90;42.70;;;;;;4919121;29;20240;-85
2022/04/29 13:35:53;;;;;;;4.55;3.28;;;24.60;43.60;;;;;;4919149;29;20266;-85